createdAt,value
2022-11-10T00:02:08.101Z,3.10
2022-11-10T00:04:53.262Z,3.25
2022-11-10T00:07:38.649Z,3.08
2022-11-10T00:10:24.514Z,2.75
2022-11-10T00:13:09.372Z,2.67
2022-11-10T00:16:12.974Z,2.83
2022-11-10T00:18:58.393Z,3.85
2022-11-10T00:21:43.711Z,2.80
2022-11-10T00:24:29.438Z,3.35
2022-11-10T00:27:14.965Z,3.10
2022-11-10T00:30:00.844Z,3.38
2022-11-10T00:32:48.136Z,2.90
2022-11-10T00:35:33.319Z,3.88
2022-11-10T00:38:18.574Z,3.30
2022-11-10T00:41:04.051Z,3.42
2022-11-10T00:43:49.197Z,3.72
2022-11-10T00:46:34.434Z,3.80
2022-11-10T00:49:19.769Z,3.58
2022-11-10T00:52:05.336Z,3.40
2022-11-10T00:54:50.689Z,4.00
2022-11-10T00:57:35.859Z,4.53
2022-11-10T01:00:21.189Z,3.70
2022-11-10T01:03:07.042Z,4.10
2022-11-10T01:05:52.532Z,4.40
2022-11-10T01:08:38.337Z,4.90
2022-11-10T01:11:26.454Z,4.90
2022-11-10T01:14:11.608Z,4.55
2022-11-10T01:16:56.467Z,4.82
2022-11-10T01:19:42.250Z,3.75
2022-11-10T01:22:27.412Z,3.60
2022-11-10T01:25:12.782Z,4.82
2022-11-10T01:27:58.002Z,4.45
2022-11-10T01:30:43.197Z,4.03
2022-11-10T01:33:29.015Z,4.13
2022-11-10T01:36:14.308Z,4.32
2022-11-10T01:39:00.980Z,4.70
2022-11-10T01:41:46.364Z,4.30
2022-11-10T01:44:31.677Z,5.25
2022-11-10T01:47:17.152Z,3.95
2022-11-10T01:50:02.709Z,4.80
2022-11-10T01:52:51.165Z,4.93
2022-11-10T01:55:39.062Z,4.45
2022-11-10T01:58:34.189Z,4.78
2022-11-10T02:01:19.319Z,4.90
2022-11-10T02:04:13.140Z,4.35
2022-11-10T02:06:59.306Z,5.13
2022-11-10T02:09:44.611Z,4.93
2022-11-10T02:12:40.228Z,4.57
2022-11-10T02:15:25.770Z,5.03
2022-11-10T02:18:11.126Z,5.15
2022-11-10T02:20:56.257Z,4.38
2022-11-10T02:23:45.405Z,4.80
2022-11-10T02:26:30.520Z,5.38
2022-11-10T02:29:16.071Z,4.70
2022-11-10T02:32:01.177Z,4.35
2022-11-10T02:34:46.467Z,5.13
2022-11-10T02:37:32.365Z,4.60
2022-11-10T02:40:17.433Z,5.72
2022-11-10T02:43:05.527Z,4.32
2022-11-10T02:45:50.941Z,5.10
2022-11-10T02:48:36.214Z,4.15
2022-11-10T02:51:21.501Z,4.85
2022-11-10T02:54:06.773Z,4.15
2022-11-10T02:56:52.094Z,4.55
2022-11-10T02:59:37.176Z,5.18
2022-11-10T03:02:22.649Z,4.80
2022-11-10T03:05:08.167Z,4.75
2022-11-10T03:07:55.432Z,4.70
2022-11-10T03:10:40.338Z,5.65
2022-11-10T03:13:40.008Z,4.70
2022-11-10T03:16:31.902Z,5.07
2022-11-10T03:19:17.259Z,4.30
2022-11-10T03:22:02.566Z,4.65
2022-11-10T03:24:47.718Z,4.93
2022-11-10T03:27:32.721Z,4.40
2022-11-10T03:30:17.869Z,5.00
2022-11-10T03:33:03.611Z,4.65
2022-11-10T03:35:48.701Z,4.72
2022-11-10T03:38:33.920Z,4.85
2022-11-10T03:41:20.711Z,4.80
2022-11-10T03:44:06.160Z,4.55
2022-11-10T03:46:51.895Z,5.40
2022-11-10T03:49:36.856Z,4.50
2022-11-10T03:52:22.080Z,4.22
2022-11-10T03:55:07.890Z,4.47
2022-11-10T03:57:52.804Z,4.75
2022-11-10T04:00:38.417Z,4.13
2022-11-10T04:03:24.584Z,7.63
2022-11-10T04:06:30.177Z,4.50
2022-11-10T04:09:15.540Z,4.50
2022-11-10T04:12:23.651Z,3.97
2022-11-10T04:15:31.491Z,4.57
2022-11-10T04:18:25.710Z,4.60
2022-11-10T04:21:12.104Z,4.55
2022-11-10T04:23:57.699Z,3.90
2022-11-10T04:26:44.193Z,4.13
2022-11-10T04:29:29.740Z,4.65
2022-11-10T04:32:14.897Z,4.15
2022-11-10T04:35:00.201Z,4.32
2022-11-10T04:37:46.622Z,3.95
2022-11-10T04:40:31.788Z,5.10
2022-11-10T04:43:17.000Z,5.10
2022-11-10T04:46:03.370Z,3.90
2022-11-10T04:48:48.602Z,4.75
2022-11-10T04:51:36.499Z,4.95
2022-11-10T04:54:21.585Z,4.75
2022-11-10T04:57:06.953Z,4.18
2022-11-10T04:59:52.126Z,4.50
2022-11-10T05:02:39.809Z,4.15
2022-11-10T05:05:25.239Z,4.80
2022-11-10T05:08:10.488Z,4.57
2022-11-10T05:10:55.851Z,4.65
2022-11-10T05:13:41.125Z,3.88
2022-11-10T05:16:26.594Z,4.30
2022-11-10T05:19:11.834Z,4.35
2022-11-10T05:21:57.258Z,3.67
2022-11-10T05:24:42.569Z,4.10
2022-11-10T05:27:27.572Z,4.68
2022-11-10T05:30:12.826Z,4.13
2022-11-10T05:32:58.292Z,3.70
2022-11-10T05:35:44.184Z,4.10
2022-11-10T05:38:29.177Z,3.75
2022-11-10T05:41:14.504Z,4.80
2022-11-10T05:43:59.808Z,3.85
2022-11-10T05:46:45.144Z,4.18
2022-11-10T05:49:30.384Z,3.38
2022-11-10T05:52:15.831Z,3.92
2022-11-10T05:55:01.248Z,4.18
2022-11-10T05:57:47.964Z,4.40
2022-11-10T06:00:33.644Z,3.53
2022-11-10T06:03:19.909Z,3.67
2022-11-10T06:06:05.695Z,4.88
2022-11-10T06:08:50.667Z,4.72
2022-11-10T06:11:35.972Z,4.40
2022-11-10T06:14:21.186Z,4.70
2022-11-10T06:17:06.787Z,4.00
2022-11-10T06:19:51.941Z,3.95
2022-11-10T06:22:37.053Z,4.63
2022-11-10T06:25:22.294Z,4.75
2022-11-10T06:28:09.028Z,4.80
2022-11-10T06:30:58.079Z,4.13
2022-11-10T06:33:43.674Z,4.38
2022-11-10T06:36:28.646Z,3.90
2022-11-10T06:39:13.846Z,4.43
2022-11-10T06:41:59.129Z,4.22
2022-11-10T06:44:44.190Z,3.80
2022-11-10T06:47:29.929Z,4.20
2022-11-10T06:50:15.184Z,4.43
2022-11-10T06:53:01.306Z,4.15
2022-11-10T06:55:46.222Z,3.78
2022-11-10T06:58:31.527Z,4.15
2022-11-10T07:01:22.110Z,3.72
2022-11-10T07:04:19.613Z,4.00
2022-11-10T07:07:05.655Z,4.05
2022-11-10T07:09:50.720Z,4.03
2022-11-10T07:12:35.972Z,4.40
2022-11-10T07:15:21.041Z,3.97
2022-11-10T07:18:06.486Z,4.05
2022-11-10T07:20:51.771Z,3.70
2022-11-10T07:23:37.109Z,4.38
2022-11-10T07:26:22.396Z,5.00
2022-11-10T07:29:07.477Z,5.15
2022-11-10T07:31:53.166Z,4.38
2022-11-10T07:34:38.227Z,3.85
2022-11-10T07:37:23.420Z,4.43
2022-11-10T07:40:09.330Z,4.78
2022-11-10T07:42:54.585Z,3.55
2022-11-10T07:45:40.081Z,4.63
2022-11-10T07:48:25.429Z,3.85
2022-11-10T07:51:10.695Z,5.03
2022-11-10T07:53:56.006Z,3.88
2022-11-10T07:56:42.326Z,4.38
2022-11-10T07:59:27.641Z,3.88
2022-11-10T08:02:12.690Z,5.93
2022-11-10T08:04:57.871Z,3.80
2022-11-10T08:07:43.060Z,5.65
2022-11-10T08:10:29.723Z,4.70
2022-11-10T08:13:14.918Z,4.68
2022-11-10T08:16:00.224Z,3.97
2022-11-10T08:18:45.558Z,4.25
2022-11-10T08:21:31.373Z,4.32
2022-11-10T08:24:16.718Z,3.35
2022-11-10T08:27:02.007Z,4.30
2022-11-10T08:29:47.205Z,4.28
2022-11-10T08:32:32.471Z,3.70
2022-11-10T08:35:17.682Z,3.75
2022-11-10T08:38:11.216Z,3.90
2022-11-10T08:40:57.558Z,4.85
2022-11-10T08:43:43.632Z,3.60
2022-11-10T08:46:28.597Z,4.07
2022-11-10T08:49:14.102Z,4.38
2022-11-10T08:51:59.249Z,3.95
2022-11-10T08:54:44.728Z,4.25
2022-11-10T08:57:30.004Z,3.58
2022-11-10T09:00:16.634Z,3.97
2022-11-10T09:03:12.081Z,3.40
2022-11-10T09:05:58.733Z,4.15
2022-11-10T09:08:43.869Z,4.22
2022-11-10T09:11:35.172Z,4.47
2022-11-10T09:14:25.230Z,4.47
2022-11-10T09:17:12.076Z,4.93
2022-11-10T09:20:06.352Z,3.78
2022-11-10T09:23:15.701Z,4.20
2022-11-10T09:26:17.677Z,4.00
2022-11-10T09:29:17.694Z,4.00
2022-11-10T09:32:03.065Z,3.90
2022-11-10T09:34:52.682Z,4.07
2022-11-10T09:37:40.300Z,3.92
2022-11-10T09:40:37.729Z,4.28
2022-11-10T09:43:58.487Z,3.67
2022-11-10T09:46:53.594Z,3.75
2022-11-10T09:49:48.795Z,3.72
2022-11-10T09:52:36.660Z,3.20
2022-11-10T09:55:37.452Z,4.05
2022-11-10T09:58:30.021Z,3.25
2022-11-10T10:01:24.018Z,4.03
2022-11-10T10:04:51.494Z,3.95
2022-11-10T10:07:56.868Z,3.70
2022-11-10T10:10:51.727Z,3.20
2022-11-10T10:14:24.896Z,3.42
2022-11-10T10:17:40.998Z,3.35
2022-11-10T10:20:44.823Z,3.65
2022-11-10T10:24:07.835Z,3.40
2022-11-10T10:26:53.334Z,3.50
2022-11-10T10:29:48.050Z,3.30
2022-11-10T10:32:33.207Z,3.25
2022-11-10T10:35:18.972Z,4.18
2022-11-10T10:38:09.974Z,2.80
2022-11-10T10:41:00.685Z,2.97
2022-11-10T10:43:49.062Z,3.35
2022-11-10T10:46:45.989Z,2.95
2022-11-10T10:49:36.752Z,3.45
2022-11-10T10:52:25.017Z,2.75
2022-11-10T10:55:13.120Z,3.55
2022-11-10T10:58:01.169Z,2.63
2022-11-10T11:00:51.901Z,2.92
2022-11-10T11:03:38.823Z,2.53
2022-11-10T11:06:33.846Z,2.70
2022-11-10T11:09:24.610Z,3.08
2022-11-10T11:12:25.830Z,2.40
2022-11-10T11:15:20.984Z,2.58
2022-11-10T11:18:17.777Z,2.78
2022-11-10T11:21:22.060Z,3.97
2022-11-10T11:24:28.482Z,2.67
2022-11-10T11:27:37.802Z,3.90
2022-11-10T11:33:23.584Z,3.67
2022-11-10T11:36:43.001Z,3.45
2022-11-10T11:39:49.820Z,2.50
2022-11-10T11:42:40.915Z,2.90
2022-11-10T11:45:57.437Z,3.80
2022-11-10T11:48:53.733Z,3.30
2022-11-10T11:52:04.093Z,3.17
2022-11-10T11:55:23.350Z,2.75
2022-11-10T11:58:42.025Z,3.15
2022-11-10T12:01:57.286Z,2.90
2022-11-10T12:04:45.954Z,2.33
2022-11-10T12:07:45.176Z,3.85
2022-11-10T12:10:43.000Z,2.88
2022-11-10T12:13:51.905Z,2.47
2022-11-10T12:16:39.208Z,3.33
2022-11-10T12:19:43.547Z,2.53
2022-11-10T12:22:31.832Z,2.80
2022-11-10T12:25:31.031Z,2.30
2022-11-10T12:28:22.624Z,2.97
2022-11-10T12:31:15.369Z,2.83
2022-11-10T12:34:24.644Z,2.97
2022-11-10T12:37:22.331Z,2.70
2022-11-10T12:40:28.676Z,2.10
2022-11-10T12:43:35.427Z,3.47
2022-11-10T12:46:20.611Z,2.85
2022-11-10T12:49:29.961Z,2.90
2022-11-10T12:55:15.008Z,2.58
2022-11-10T12:58:01.933Z,2.90
2022-11-10T13:00:57.974Z,2.13
2022-11-10T13:03:58.947Z,2.85
2022-11-10T13:06:50.602Z,3.45
2022-11-10T13:09:39.144Z,3.20
2022-11-10T13:12:25.896Z,3.00
2022-11-10T13:15:36.549Z,3.35
2022-11-10T13:18:42.443Z,5.45
2022-11-10T13:21:52.487Z,2.63
2022-11-10T13:24:40.760Z,2.35
2022-11-10T13:27:38.005Z,6.18
2022-11-10T13:30:43.729Z,2.92
2022-11-10T13:33:31.242Z,3.38
2022-11-10T13:37:02.280Z,4.88
2022-11-10T13:39:47.369Z,2.50
2022-11-10T13:42:32.798Z,6.25
2022-11-10T13:45:39.951Z,2.40
2022-11-10T13:48:41.768Z,2.45
2022-11-10T13:51:53.711Z,2.08
2022-11-10T13:55:11.777Z,2.10
2022-11-10T13:58:03.828Z,2.10
2022-11-10T14:01:14.851Z,2.08
2022-11-10T14:04:02.228Z,2.67
2022-11-10T14:06:55.088Z,2.85
2022-11-10T14:09:48.126Z,2.17
2022-11-10T14:12:50.843Z,2.63
2022-11-10T14:15:43.132Z,2.05
2022-11-10T14:18:39.630Z,2.10
2022-11-10T14:21:35.121Z,2.60
2022-11-10T14:24:28.756Z,2.13
2022-11-10T14:27:21.041Z,2.65
2022-11-10T14:30:27.965Z,2.42
2022-11-10T14:33:16.003Z,1.60
2022-11-10T14:36:07.614Z,1.70
2022-11-10T14:38:53.311Z,5.25
2022-11-10T14:41:47.305Z,2.45
2022-11-10T14:44:34.618Z,2.88
2022-11-10T14:47:31.229Z,2.10
2022-11-10T14:50:26.087Z,2.13
2022-11-10T14:53:14.103Z,3.25
2022-11-10T14:56:03.921Z,2.90
2022-11-10T14:58:49.963Z,3.00
2022-11-10T15:01:39.539Z,3.35
2022-11-10T15:07:14.958Z,2.40
2022-11-10T15:10:24.647Z,2.22
2022-11-10T15:13:12.702Z,2.15
2022-11-10T15:16:20.665Z,2.80
2022-11-10T15:19:29.334Z,2.10
2022-11-10T15:22:30.731Z,1.98
2022-11-10T15:25:22.275Z,2.20
2022-11-10T15:28:13.796Z,3.50
2022-11-10T15:31:02.605Z,2.88
2022-11-10T15:33:50.532Z,2.20
2022-11-10T15:36:41.172Z,2.00
2022-11-10T15:39:27.734Z,1.95
2022-11-10T15:42:18.912Z,2.13
2022-11-10T15:45:05.029Z,2.03
2022-11-10T15:47:50.926Z,2.30
2022-11-10T15:50:36.535Z,3.55
2022-11-10T15:53:27.517Z,2.92
2022-11-10T15:56:17.034Z,3.00
2022-11-10T16:01:48.649Z,3.10
2022-11-10T16:04:33.907Z,4.28
2022-11-10T16:07:19.133Z,4.20
2022-11-10T16:10:05.979Z,4.13
2022-11-10T16:12:51.365Z,4.35
2022-11-10T16:15:36.669Z,4.05
2022-11-10T16:18:25.418Z,4.80
2022-11-10T16:21:16.456Z,5.10
2022-11-10T16:24:02.007Z,4.35
2022-11-10T16:26:47.008Z,4.93
2022-11-10T16:29:33.388Z,4.50
2022-11-10T16:32:18.619Z,3.63
2022-11-10T16:35:04.297Z,3.28
2022-11-10T16:37:49.507Z,3.47
2022-11-10T16:40:34.459Z,3.15
2022-11-10T16:43:20.152Z,2.65
2022-11-10T16:46:13.856Z,2.97
2022-11-10T16:49:01.308Z,2.72
2022-11-10T16:51:49.050Z,3.67
2022-11-10T16:54:34.354Z,3.20
2022-11-10T16:57:20.631Z,2.90
2022-11-10T17:00:06.481Z,3.47
2022-11-10T17:03:06.249Z,3.80
2022-11-10T17:05:51.440Z,4.05
2022-11-10T17:08:36.780Z,3.78
2022-11-10T17:11:22.478Z,3.50
2022-11-10T17:14:10.780Z,2.75
2022-11-10T17:16:58.753Z,2.22
2022-11-10T17:19:45.086Z,2.75
2022-11-10T17:22:33.085Z,3.55
2022-11-10T17:25:27.802Z,3.20
2022-11-10T17:28:15.464Z,3.13
2022-11-10T17:31:00.855Z,3.45
2022-11-10T17:33:46.578Z,2.78
2022-11-10T17:36:34.670Z,2.63
2022-11-10T17:39:20.304Z,2.47
2022-11-10T17:42:05.952Z,2.67
2022-11-10T17:44:51.038Z,2.88
2022-11-10T17:47:36.533Z,2.97
2022-11-10T17:50:23.689Z,3.10
2022-11-10T17:53:15.431Z,3.47
2022-11-10T17:56:00.831Z,2.90
2022-11-10T17:58:46.476Z,2.60
2022-11-10T18:01:31.911Z,3.08
2022-11-10T18:04:17.255Z,3.28
2022-11-10T18:07:02.687Z,2.90
2022-11-10T18:09:48.544Z,2.60
2022-11-10T18:12:34.154Z,3.22
2022-11-10T18:15:19.347Z,2.78
2022-11-10T18:18:04.566Z,3.25
2022-11-10T18:20:49.650Z,3.20
2022-11-10T18:23:34.990Z,3.05
2022-11-10T18:26:20.289Z,3.22
2022-11-10T18:29:05.795Z,3.53
2022-11-10T18:31:51.035Z,3.53
2022-11-10T18:34:36.315Z,4.00
2022-11-10T18:37:21.904Z,4.00
2022-11-10T18:40:07.884Z,6.15
2022-11-10T18:42:58.547Z,5.22
2022-11-10T18:45:45.916Z,3.97
2022-11-10T18:48:36.119Z,3.65
2022-11-10T18:51:22.266Z,3.35
2022-11-10T18:54:08.361Z,3.60
2022-11-10T18:56:54.253Z,4.38
2022-11-10T18:59:40.286Z,4.20
2022-11-10T19:02:25.779Z,3.10
2022-11-10T19:05:11.058Z,3.70
2022-11-10T19:07:56.727Z,3.70
2022-11-10T19:10:42.513Z,3.40
2022-11-10T19:13:27.868Z,3.55
2022-11-10T19:16:16.876Z,3.60
2022-11-10T19:19:02.312Z,4.10
2022-11-10T19:21:47.668Z,4.20
2022-11-10T19:24:42.245Z,4.20
2022-11-10T19:27:38.128Z,4.07
2022-11-10T19:30:23.434Z,3.33
2022-11-10T19:33:08.608Z,3.03
2022-11-10T19:35:53.691Z,3.10
2022-11-10T19:38:39.571Z,2.95
2022-11-10T19:41:30.839Z,2.95
2022-11-10T19:44:16.068Z,2.80
2022-11-10T19:47:04.363Z,2.85
2022-11-10T19:49:53.097Z,3.60
2022-11-10T19:52:38.237Z,4.05
2022-11-10T19:55:23.441Z,3.95
2022-11-10T19:58:08.993Z,4.30
2022-11-10T20:00:54.858Z,5.30
2022-11-10T20:03:40.677Z,5.05
2022-11-10T20:06:26.445Z,4.25
2022-11-10T20:09:12.081Z,3.05
2022-11-10T20:11:57.214Z,3.10
2022-11-10T20:14:42.343Z,3.70
2022-11-10T20:17:27.695Z,3.40
2022-11-10T20:20:14.115Z,3.17
2022-11-10T20:23:04.542Z,3.50
2022-11-10T20:25:49.643Z,2.80
2022-11-10T20:28:37.338Z,3.25
2022-11-10T20:31:26.268Z,3.05
2022-11-10T20:34:11.584Z,2.80
2022-11-10T20:36:56.957Z,3.33
2022-11-10T20:39:42.335Z,3.13
2022-11-10T20:42:27.800Z,3.00
2022-11-10T20:45:13.590Z,3.33
2022-11-10T20:47:58.839Z,3.25
2022-11-10T20:50:43.882Z,3.42
2022-11-10T20:53:29.573Z,2.95
2022-11-10T20:56:15.949Z,3.08
2022-11-10T20:59:00.991Z,3.97
2022-11-10T21:01:46.812Z,3.42
2022-11-10T21:04:32.369Z,3.42
2022-11-10T21:07:17.603Z,3.42
2022-11-10T21:10:03.288Z,3.20
2022-11-10T21:12:51.217Z,2.95
2022-11-10T21:15:40.060Z,3.20
2022-11-10T21:18:31.091Z,2.85
2022-11-10T21:21:22.844Z,2.67
2022-11-10T21:24:09.396Z,2.80
2022-11-10T21:26:56.247Z,3.40
2022-11-10T21:29:42.341Z,3.53
2022-11-10T21:32:28.400Z,2.97
2022-11-10T21:35:13.641Z,2.90
2022-11-10T21:37:58.903Z,3.00
2022-11-10T21:40:44.259Z,3.03
2022-11-10T21:43:29.673Z,2.78
2022-11-10T21:46:15.140Z,2.75
2022-11-10T21:49:06.084Z,2.60
2022-11-10T21:51:52.831Z,3.08
2022-11-10T21:54:38.153Z,2.70
2022-11-10T21:57:23.023Z,3.17
2022-11-10T22:00:11.864Z,3.28
2022-11-10T22:03:01.968Z,3.78
2022-11-10T22:05:46.918Z,3.10
2022-11-10T22:08:32.510Z,2.95
2022-11-10T22:11:38.357Z,3.20
2022-11-10T22:14:42.230Z,3.50
2022-11-10T22:17:45.997Z,3.78
2022-11-10T22:20:31.425Z,2.80
2022-11-10T22:23:16.649Z,3.35
2022-11-10T22:26:01.900Z,4.88
2022-11-10T22:28:47.121Z,3.20
2022-11-10T22:31:33.820Z,3.60
2022-11-10T22:34:19.860Z,4.43
2022-11-10T22:37:05.016Z,3.42
2022-11-10T22:40:08.572Z,2.85
2022-11-10T22:43:12.364Z,3.25
2022-11-10T22:45:58.192Z,3.35
2022-11-10T22:48:43.411Z,3.25
2022-11-10T22:51:29.918Z,2.65
2022-11-10T22:54:17.132Z,3.40
2022-11-10T22:57:02.275Z,3.15
2022-11-10T22:59:47.443Z,3.17
2022-11-10T23:02:32.720Z,3.45
2022-11-10T23:05:17.980Z,3.17
2022-11-10T23:08:03.406Z,3.20
2022-11-10T23:10:49.152Z,3.30
2022-11-10T23:13:35.327Z,3.60
2022-11-10T23:16:26.302Z,2.78
2022-11-10T23:19:11.874Z,3.10
2022-11-10T23:21:57.212Z,3.05
2022-11-10T23:24:42.380Z,3.13
2022-11-10T23:27:27.364Z,3.17
2022-11-10T23:30:12.608Z,2.85
2022-11-10T23:32:57.737Z,3.45
2022-11-10T23:35:42.873Z,3.47
2022-11-10T23:38:32.958Z,3.42
2022-11-10T23:41:20.431Z,3.35
2022-11-10T23:44:08.399Z,3.17
2022-11-10T23:46:53.718Z,4.40
2022-11-10T23:49:38.982Z,3.47
2022-11-10T23:52:24.154Z,2.85
2022-11-10T23:55:09.654Z,2.85
2022-11-10T23:57:54.916Z,3.05
